Time;durP1;ratioP1;P1;durP2;ratioP2;P2;SDS_P1;SDS_P2;PMS_P1;PMS_P2;Temp;Humidity;BMP_temperature;BMP_pressure;BME280_temperature;BME280_humidity;BME280_pressure;Samples;Min_cycle;Max_cycle;Signal;HPM_P1;HPM_P2
2022/09/01 00:00:29;;;;;;;2.95;1.70;;;;;;;15.05;66.38;101794.66;1923687;29;20046;-81
2022/09/01 00:01:27;;;;;;;2.88;1.60;;;;;;;15.03;66.63;101792.13;1931447;29;20131;-78
2022/09/01 00:02:27;;;;;;;1.73;1.63;;;;;;;15.00;67.02;101791.38;1931401;29;20036;-80
2022/09/01 00:03:25;;;;;;;4.82;1.70;;;;;;;15.01;66.60;101795.72;1938880;29;20127;-80
2022/09/01 00:04:25;;;;;;;4.85;1.80;;;;;;;15.01;66.54;101793.09;1938719;29;20430;-80
2022/09/01 00:05:23;;;;;;;4.00;1.80;;;;;;;15.00;66.41;101792.25;1932756;29;20071;-80
2022/09/01 00:06:23;;;;;;;2.78;1.88;;;;;;;14.99;66.96;101794.94;1918357;29;20103;-78
2022/09/01 00:07:20;;;;;;;6.43;1.90;;;;;;;14.99;66.76;101792.31;1932217;29;20082;-78
2022/09/01 00:08:18;;;;;;;1.90;1.80;;;;;;;14.96;66.97;101795.09;1939695;29;20040;-79
2022/09/01 00:09:18;;;;;;;2.90;1.88;;;;;;;14.95;67.19;101793.38;1933621;29;20043;-80
2022/09/01 00:10:16;;;;;;;2.63;1.98;;;;;;;14.90;67.55;101799.72;1932814;29;20073;-79
2022/09/01 00:11:13;;;;;;;3.25;1.95;;;;;;;14.90;67.26;101789.19;1925701;29;20059;-83
2022/09/01 00:12:11;;;;;;;2.90;1.70;;;;;;;14.89;67.50;101794.50;1932654;29;20039;-79
2022/09/01 00:13:08;;;;;;;2.88;1.55;;;;;;;14.85;67.49;101785.91;1939259;29;20447;-79
2022/09/01 00:14:09;;;;;;;6.90;1.67;;;;;;;14.80;68.20;101786.13;1933480;29;20032;-81
2022/09/01 00:15:09;;;;;;;2.72;1.92;;;;;;;14.85;67.68;101782.44;1932737;29;20071;-80
2022/09/01 00:16:08;;;;;;;4.00;2.10;;;;;;;14.83;67.61;101785.13;1925332;29;20073;-82
2022/09/01 00:17:11;;;;;;;4.80;2.08;;;;;;;14.82;67.43;101783.44;1932684;29;20153;-80
2022/09/01 00:18:10;;;;;;;4.00;1.85;;;;;;;14.72;68.92;101782.09;1932844;29;20032;-79
2022/09/01 00:19:07;;;;;;;2.75;1.90;;;;;;;14.72;68.96;101779.47;1934870;29;20032;-81
2022/09/01 00:20:06;;;;;;;3.53;1.88;;;;;;;14.72;68.30;101782.09;1932822;29;20056;-78
2022/09/01 00:21:03;;;;;;;2.72;1.90;;;;;;;14.68;68.66;101779.59;1932548;29;20032;-81
2022/09/01 00:22:02;;;;;;;1.92;1.73;;;;;;;14.64;69.36;101785.06;1932798;29;20060;-80
2022/09/01 00:23:00;;;;;;;3.30;1.90;;;;;;;14.60;69.36;101779.09;1925246;29;20089;-80
2022/09/01 00:24:00;;;;;;;2.80;1.70;;;;;;;14.63;68.52;101773.72;1925389;29;20033;-81
2022/09/01 00:25:00;;;;;;;2.00;1.80;;;;;;;14.60;68.96;101781.72;1932547;29;20032;-78
2022/09/01 00:25:57;;;;;;;4.68;1.80;;;;;;;14.60;69.31;101780.88;1932650;29;20039;-81
2022/09/01 00:26:56;;;;;;;2.05;1.70;;;;;;;14.59;69.19;101777.41;1932778;29;20024;-80
2022/09/01 00:27:58;;;;;;;3.45;1.88;;;;;;;14.60;68.93;101783.50;1932566;29;20028;-79
2022/09/01 00:28:55;;;;;;;3.50;1.90;;;;;;;14.57;69.29;101786.28;1932774;29;20035;-79
2022/09/01 00:29:53;;;;;;;1.70;1.60;;;;;;;14.57;69.55;101786.28;1937664;29;20031;-78
2022/09/01 00:30:50;;;;;;;2.22;1.63;;;;;;;14.55;69.22;101786.34;1940169;29;20023;-80
2022/09/01 00:31:48;;;;;;;3.30;2.00;;;;;;;14.51;69.56;101784.78;1933241;29;20042;-79
2022/09/01 00:32:46;;;;;;;1.80;1.67;;;;;;;14.48;70.36;101782.28;1932818;29;20040;-80
2022/09/01 00:33:44;;;;;;;5.15;1.70;;;;;;;14.42;69.72;101786.88;1933140;29;20045;-80
2022/09/01 00:34:41;;;;;;;6.75;2.00;;;;;;;14.40;70.05;101799.22;1940143;29;20028;-81
2022/09/01 00:35:39;;;;;;;5.60;1.90;;;;;;;14.39;72.52;101784.41;1940023;29;20036;-79
2022/09/01 00:36:37;;;;;;;5.32;2.00;;;;;;;14.36;70.37;101789.78;1933279;29;20039;-81
2022/09/01 00:37:34;;;;;;;3.55;1.80;;;;;;;14.35;70.63;101785.44;1932477;29;20036;-80
2022/09/01 00:38:33;;;;;;;3.40;1.95;;;;;;;14.34;70.73;101788.97;1932713;29;20032;-79
2022/09/01 00:39:31;;;;;;;2.97;1.80;;;;;;;14.30;72.01;101790.03;1932447;29;20075;-80
2022/09/01 00:40:28;;;;;;;2.33;1.70;;;;;;;14.25;71.04;101789.38;1932610;29;20072;-79
2022/09/01 00:41:30;;;;;;;2.97;1.80;;;;;;;14.27;71.18;101784.94;1932647;29;20044;-79
2022/09/01 00:42:28;;;;;;;3.28;1.90;;;;;;;14.24;72.32;101788.50;1932990;29;20483;-80
2022/09/01 00:43:45;;;;;;;3.25;2.10;;;;;;;14.27;72.71;101782.31;1940183;29;20036;-79
2022/09/01 00:44:43;;;;;;;2.28;1.80;;;;;;;14.23;71.67;101785.97;1938279;29;20055;-81
2022/09/01 00:45:41;;;;;;;2.58;1.80;;;;;;;14.23;71.80;101788.59;1924888;29;20048;-80
2022/09/01 00:46:48;;;;;;;2.33;1.98;;;;;;;14.10;73.87;101786.47;1924474;29;20037;-80
2022/09/01 00:47:46;;;;;;;5.47;2.35;;;;;;;14.15;71.89;101787.16;1925182;29;20445;-80
2022/09/01 00:48:50;;;;;;;2.13;1.92;;;;;;;14.12;72.76;101784.66;1917719;29;20040;-79
2022/09/01 00:49:50;;;;;;;3.78;2.20;;;;;;;14.17;72.00;101787.09;1925085;29;20029;-79
2022/09/01 00:50:48;;;;;;;3.60;2.17;;;;;;;14.11;73.12;101788.22;1939845;29;20034;-79
2022/09/01 00:51:52;;;;;;;3.53;2.10;;;;;;;14.12;73.51;101784.66;1940032;29;20038;-80
2022/09/01 00:52:54;;;;;;;2.65;2.30;;;;;;;14.09;74.30;101784.78;1932269;29;20121;-79
2022/09/01 00:53:54;;;;;;;4.82;2.50;;;;;;;14.05;74.88;101783.22;1932402;29;20024;-81
2022/09/01 00:54:58;;;;;;;3.42;2.20;;;;;;;14.08;72.89;101788.34;1939833;29;20448;-80
2022/09/01 00:55:56;;;;;;;7.70;2.42;;;;;;;13.99;75.30;101786.09;1924945;29;20028;-79
2022/09/01 00:56:55;;;;;;;4.43;2.22;;;;;;;13.99;75.06;101783.47;1925016;29;20108;-80
2022/09/01 00:57:53;;;;;;;4.22;2.50;;;;;;;14.03;72.82;101785.06;1932353;29;20110;-80
2022/09/01 00:58:52;;;;;;;5.90;2.20;;;;;;;14.00;75.32;101786.00;1939677;29;20023;-80
2022/09/01 01:00:03;;;;;;;5.20;2.17;;;;;;;13.98;77.32;101784.38;1939823;29;20034;-80
2022/09/01 01:01:01;;;;;;;2.60;2.20;;;;;;;13.95;73.79;101787.13;1932310;29;20452;-79
2022/09/01 01:01:59;;;;;;;2.65;2.28;;;;;;;13.96;73.53;101784.44;1924911;29;20047;-79
2022/09/01 01:02:57;;;;;;;5.88;2.42;;;;;;;13.91;74.51;101781.16;1925049;29;20028;-80
2022/09/01 01:04:01;;;;;;;4.88;2.28;;;;;;;13.87;75.29;101777.81;1924258;29;20024;-80
2022/09/01 01:04:59;;;;;;;4.38;2.20;;;;;;;13.86;76.50;101783.13;1925066;29;20038;-79
2022/09/01 01:06:02;;;;;;;4.35;2.15;;;;;;;13.88;74.43;101770.78;1932408;29;20475;-80
2022/09/01 01:07:01;;;;;;;4.30;2.15;;;;;;;13.84;76.17;101780.56;1932145;29;20127;-80
2022/09/01 01:08:03;;;;;;;1.90;1.80;;;;;;;13.81;77.55;101779.81;1932465;29;20031;-80
2022/09/01 01:09:01;;;;;;;5.10;2.20;;;;;;;13.78;77.51;101775.56;1924896;29;20032;-81
2022/09/01 01:09:58;;;;;;;5.25;2.20;;;;;;;13.76;77.05;101778.25;1924930;29;20046;-79
2022/09/01 01:10:56;;;;;;;3.10;2.40;;;;;;;13.74;78.11;101781.84;1938961;29;20077;-80
2022/09/01 01:11:58;;;;;;;4.30;2.22;;;;;;;13.75;76.04;101770.44;1933205;29;20028;-81
2022/09/01 01:12:55;;;;;;;2.22;2.00;;;;;;;13.74;76.18;101774.00;1932203;29;20460;-79
2022/09/01 01:14:14;;;;;;;3.65;2.22;;;;;;;13.72;77.06;101778.47;1939623;29;20106;-80
2022/09/01 01:15:13;;;;;;;4.57;2.30;;;;;;;13.64;76.35;101769.13;1937475;29;20046;-81
2022/09/01 01:16:10;;;;;;;3.75;2.30;;;;;;;13.58;77.47;101766.75;1932174;29;20032;-80
2022/09/01 01:17:10;;;;;;;3.95;2.85;;;;;;;13.61;76.53;101773.63;1931771;29;20040;-79
2022/09/01 01:18:07;;;;;;;3.75;2.45;;;;;;;13.56;76.74;101765.09;1932773;29;20032;-78
2022/09/01 01:23:00;;;;;;;2.50;2.30;;;;;;;13.57;76.85;101777.28;1926057;29;20085;-82
2022/09/01 01:24:05;;;;;;;3.83;2.47;;;;;;;13.47;79.84;101776.78;1932702;29;20468;-80
2022/09/01 01:25:03;;;;;;;4.20;2.60;;;;;;;13.37;78.42;101776.28;1946776;29;20034;-80
2022/09/01 01:26:00;;;;;;;3.33;2.47;;;;;;;13.43;81.30;101769.94;1946864;28;20042;-80
2022/09/01 01:26:58;;;;;;;3.30;2.63;;;;;;;13.38;80.72;101773.59;1937959;29;20484;-80
2022/09/01 01:28:14;;;;;;;3.13;2.60;;;;;;;13.42;81.15;101773.50;1924574;29;20032;-80
2022/09/01 01:29:13;;;;;;;4.72;2.80;;;;;;;13.36;78.20;101772.81;1932227;29;20074;-80
2022/09/01 01:30:12;;;;;;;3.83;2.75;;;;;;;13.33;80.94;101767.69;1939407;29;20039;-81
2022/09/01 01:31:17;;;;;;;6.72;2.70;;;;;;;13.33;81.82;101772.94;1932467;29;20052;-81
2022/09/01 01:32:14;;;;;;;5.05;2.60;;;;;;;13.30;82.08;101770.44;1932089;29;20121;-79
2022/09/01 01:33:12;;;;;;;5.35;2.50;;;;;;;13.31;79.83;101766.88;1932691;29;20397;-80
2022/09/01 01:34:10;;;;;;;9.02;2.40;;;;;;;13.32;79.09;101768.63;1932492;29;20092;-83
2022/09/01 01:35:13;;;;;;;4.55;2.55;;;;;;;13.33;79.22;101765.06;1932170;29;20123;-80
2022/09/01 01:36:18;;;;;;;4.05;2.55;;;;;;;13.32;78.96;101768.63;1934009;29;20040;-80
2022/09/01 01:37:16;;;;;;;6.18;2.50;;;;;;;13.28;82.12;101767.03;1924820;29;20033;-79
2022/09/01 01:38:15;;;;;;;4.53;2.45;;;;;;;13.27;80.04;101773.16;1932073;29;20476;-80
2022/09/01 01:39:24;;;;;;;3.88;2.53;;;;;;;13.27;80.41;101773.16;1939677;29;20032;-78
2022/09/01 01:40:21;;;;;;;2.53;2.30;;;;;;;13.20;84.48;101775.19;1930454;29;20028;-81
2022/09/01 01:41:19;;;;;;;4.85;2.40;;;;;;;13.16;84.13;101777.97;1932560;29;20032;-79
2022/09/01 01:42:16;;;;;;;4.80;2.60;;;;;;;13.17;81.77;101774.47;1932125;29;20059;-79
2022/09/01 01:43:18;;;;;;;4.07;2.83;;;;;;;13.19;80.43;101775.25;1924870;29;20048;-80
2022/09/01 01:44:23;;;;;;;4.90;2.67;;;;;;;13.19;82.87;101770.00;1924915;29;20116;-79
2022/09/01 01:45:24;;;;;;;4.43;2.65;;;;;;;13.18;80.69;101773.53;1932887;29;20044;-79
2022/09/01 01:46:21;;;;;;;;;;;;;;;13.14;83.84;101776.28;1933202;29;20119;-79
2022/09/01 01:47:20;;;;;;;6.40;2.58;;;;;;;13.10;84.56;101777.31;1932267;29;19974;-80
2022/09/01 01:48:23;;;;;;;3.50;2.38;;;;;;;13.11;81.06;101779.00;1939557;29;20046;-78
2022/09/01 01:49:24;;;;;;;4.00;2.47;;;;;;;13.07;84.10;101780.03;1939630;29;20339;-80
2022/09/01 01:50:34;;;;;;;2.90;2.40;;;;;;;13.07;82.61;101781.81;1932258;29;20092;-81
2022/09/01 01:51:31;;;;;;;4.72;2.40;;;;;;;13.03;83.80;101775.00;1925647;29;20041;-81
2022/09/01 01:52:29;;;;;;;2.90;2.40;;;;;;;12.99;83.86;101772.47;1939563;29;20473;-80
2022/09/01 01:53:28;;;;;;;4.28;2.47;;;;;;;13.00;83.37;101784.66;1932838;29;20036;-80
2022/09/01 01:54:31;;;;;;;5.97;2.50;;;;;;;12.99;84.07;101775.09;1932253;29;20071;-80
2022/09/01 01:55:29;;;;;;;5.47;2.60;;;;;;;13.03;81.80;101778.44;1939418;29;20216;-79
2022/09/01 01:56:27;;;;;;;3.60;2.50;;;;;;;12.98;85.10;101780.41;1932096;29;20023;-79
2022/09/01 01:57:24;;;;;;;4.63;2.60;;;;;;;12.92;85.56;101783.22;1932046;29;20352;-79
2022/09/01 01:58:24;;;;;;;3.17;2.33;;;;;;;12.93;85.23;101787.59;1932305;29;20049;-81
2022/09/01 01:59:23;;;;;;;3.15;2.40;;;;;;;12.92;84.44;101780.59;1937649;29;20032;-81
2022/09/01 02:00:26;;;;;;;4.32;2.22;;;;;;;12.93;83.68;101782.34;1939649;29;20043;-81
2022/09/01 02:01:27;;;;;;;4.65;2.20;;;;;;;12.94;84.53;101781.41;1939453;29;20676;-79
2022/09/01 02:02:25;;;;;;;6.38;2.40;;;;;;;12.91;85.98;101774.53;1939751;29;20040;-79
2022/09/01 02:03:29;;;;;;;2.85;2.30;;;;;;;12.94;83.26;101784.03;1932350;29;20459;-80
2022/09/01 02:04:32;;;;;;;4.75;2.10;;;;;;;12.95;82.76;101780.50;1932201;29;20063;-81
2022/09/01 02:05:34;;;;;;;4.45;2.50;;;;;;;12.88;86.49;101775.50;1931891;29;20032;-79
2022/09/01 02:06:33;;;;;;;6.45;2.60;;;;;;;12.87;84.81;101778.19;1931909;29;20044;-80
2022/09/01 02:07:31;;;;;;;8.18;2.80;;;;;;;12.85;85.36;101780.84;1924443;29;20041;-79
2022/09/01 02:08:29;;;;;;;2.33;2.13;;;;;;;12.83;86.45;101779.22;1932005;29;20134;-81
2022/09/01 02:09:26;;;;;;;3.50;2.38;;;;;;;12.85;85.71;101780.00;1931962;29;20051;-80
2022/09/01 02:10:29;;;;;;;5.75;2.50;;;;;;;12.84;85.32;101779.16;1925454;29;20073;-81
2022/09/01 02:11:27;;;;;;;5.35;2.63;;;;;;;12.86;85.37;101784.31;1924544;29;20028;-79
2022/09/01 02:12:25;;;;;;;3.83;2.22;;;;;;;12.85;85.26;101775.63;1924610;29;20067;-79
2022/09/01 02:13:29;;;;;;;4.10;2.55;;;;;;;12.88;83.95;101774.66;1924587;29;20059;-80
2022/09/01 02:14:29;;;;;;;3.80;2.33;;;;;;;12.85;83.93;101773.00;1924834;29;20038;-79
2022/09/01 02:15:26;;;;;;;3.92;2.22;;;;;;;12.82;85.50;101777.47;1924323;29;20078;-79
2022/09/01 02:16:28;;;;;;;3.72;2.42;;;;;;;12.82;84.74;101780.97;1925143;29;20091;-79
2022/09/01 02:17:26;;;;;;;3.63;2.60;;;;;;;12.81;84.08;101781.88;1924211;29;20093;-79
2022/09/01 02:18:34;;;;;;;4.93;3.08;;;;;;;12.81;84.93;101783.63;1931998;29;20043;-78
2022/09/01 02:19:37;;;;;;;6.38;2.67;;;;;;;12.77;84.18;101780.28;1931427;29;20380;-78
2022/09/01 02:20:35;;;;;;;3.42;2.60;;;;;;;12.73;85.96;101783.94;1931937;29;20096;-79
2022/09/01 02:21:33;;;;;;;5.15;2.30;;;;;;;12.73;84.63;101781.31;1932126;29;20028;-78
2022/09/01 02:22:31;;;;;;;2.90;2.60;;;;;;;12.74;84.45;101780.41;1917703;29;20054;-79
2022/09/01 02:23:30;;;;;;;3.28;2.40;;;;;;;12.72;85.01;101779.59;1924586;29;20092;-79
2022/09/01 02:24:30;;;;;;;3.55;2.42;;;;;;;12.70;85.44;101779.63;1931241;29;20036;-80
2022/09/01 02:25:28;;;;;;;2.80;2.28;;;;;;;12.67;86.89;101781.53;1924922;29;20550;-80
2022/09/01 02:26:37;;;;;;;2.50;2.30;;;;;;;12.66;87.96;101779.81;1931882;29;20072;-78
2022/09/01 02:27:38;;;;;;;4.93;2.30;;;;;;;12.61;89.20;101777.38;1931020;29;20028;-79
2022/09/01 02:28:41;;;;;;;2.63;2.40;;;;;;;12.61;86.04;101783.47;1926011;29;20039;-79
2022/09/01 02:29:41;;;;;;;8.95;2.72;;;;;;;12.61;85.18;101777.38;1924555;29;20442;-80
2022/09/01 02:30:40;;;;;;;3.80;2.70;;;;;;;12.59;87.38;101774.78;1924264;29;20044;-80
2022/09/01 02:31:41;;;;;;;2.60;2.40;;;;;;;12.59;86.26;101780.03;1924352;29;20122;-78
2022/09/01 02:32:41;;;;;;;5.18;2.58;;;;;;;12.59;86.77;101769.56;1924380;29;20100;-79
2022/09/01 02:33:42;;;;;;;2.72;2.53;;;;;;;12.60;87.41;101773.88;1924502;29;20512;-79
2022/09/01 02:34:40;;;;;;;3.63;2.60;;;;;;;12.62;85.52;101779.06;1931791;29;20047;-80
2022/09/01 02:35:37;;;;;;;5.55;3.08;;;;;;;12.57;88.56;101771.41;1931951;29;20372;-80
2022/09/01 02:36:43;;;;;;;4.45;2.42;;;;;;;12.60;86.29;101780.91;1924941;29;20089;-81
2022/09/01 02:37:42;;;;;;;2.80;2.58;;;;;;;12.60;85.94;101780.91;1924191;29;20056;-81
2022/09/01 02:38:44;;;;;;;6.28;2.90;;;;;;;12.54;88.58;101783.72;1916873;29;20039;-80
2022/09/01 02:39:42;;;;;;;5.35;2.60;;;;;;;12.55;86.20;101772.34;1916920;29;20117;-79
2022/09/01 02:40:42;;;;;;;4.50;2.60;;;;;;;12.54;89.01;101768.88;1931484;29;20031;-80
2022/09/01 02:41:40;;;;;;;;;;;;;;;12.51;87.94;101776.84;1932149;29;20032;-80
2022/09/01 02:42:40;;;;;;;2.67;2.47;;;;;;;12.49;89.85;101773.44;1924658;29;20363;-79
2022/09/01 02:43:38;;;;;;;;;;;;;;;12.49;89.49;101782.13;1917408;29;20064;-80
2022/09/01 02:44:39;;;;;;;2.60;2.40;;;;;;;12.46;89.22;101777.00;1916910;29;20121;-79
2022/09/01 02:45:38;;;;;;;4.93;2.30;;;;;;;12.48;89.72;101772.56;1931147;29;20036;-81
2022/09/01 02:46:42;;;;;;;4.00;2.60;;;;;;;12.50;87.94;101775.13;1931697;29;20056;-79
2022/09/01 02:47:40;;;;;;;2.78;2.50;;;;;;;12.47;87.93;101770.88;1931578;29;20068;-79
2022/09/01 02:48:44;;;;;;;6.10;2.45;;;;;;;12.49;88.94;101778.69;1924404;29;20029;-80
2022/09/01 02:49:42;;;;;;;6.32;2.45;;;;;;;12.47;87.08;101775.25;1924303;29;20433;-80
2022/09/01 02:50:41;;;;;;;2.63;2.42;;;;;;;12.43;88.17;101773.66;1931692;29;20032;-80
2022/09/01 02:51:41;;;;;;;4.35;2.47;;;;;;;12.45;87.57;101771.81;1925222;29;20417;-81
2022/09/01 02:52:41;;;;;;;6.53;2.97;;;;;;;12.42;87.48;101771.94;1922959;29;20052;-80
2022/09/01 02:53:44;;;;;;;3.00;2.70;;;;;;;12.38;89.32;101767.72;1924002;29;20033;-82
2022/09/01 02:54:44;;;;;;;5.90;2.70;;;;;;;12.38;92.30;101770.34;1924424;29;20033;-79
2022/09/01 02:55:42;;;;;;;5.15;2.95;;;;;;;12.35;88.22;101771.28;1924631;29;20364;-80
2022/09/01 02:56:40;;;;;;;5.53;2.50;;;;;;;12.31;91.49;101767.94;1924247;29;20024;-80
2022/09/01 02:57:37;;;;;;;3.15;2.67;;;;;;;12.29;89.61;101767.16;1916778;29;20032;-79
2022/09/01 02:58:44;;;;;;;4.97;2.70;;;;;;;12.28;91.43;101767.19;1916910;29;20037;-80
2022/09/01 02:59:42;;;;;;;5.47;2.63;;;;;;;12.29;90.68;101766.28;1931733;29;20400;-81
2022/09/01 03:00:39;;;;;;;7.88;2.70;;;;;;;12.29;88.80;101764.53;1931692;29;20044;-79
2022/09/01 03:01:41;;;;;;;5.20;3.00;;;;;;;12.29;90.54;101761.03;1925181;29;20488;-81
2022/09/01 03:02:38;;;;;;;4.05;2.50;;;;;;;12.28;88.60;101754.09;1924187;29;20061;-80
2022/09/01 03:03:36;;;;;;;2.97;2.53;;;;;;;12.29;88.01;101761.91;1922016;29;20045;-80
2022/09/01 03:04:35;;;;;;;6.63;2.60;;;;;;;12.30;88.11;101754.91;1931594;29;20039;-80
2022/09/01 03:05:34;;;;;;;3.28;2.47;;;;;;;12.27;88.87;101758.47;1931595;29;20036;-81
2022/09/01 03:06:33;;;;;;;4.55;2.83;;;;;;;12.24;90.65;101758.56;1924395;29;20032;-80
2022/09/01 03:07:31;;;;;;;3.70;2.90;;;;;;;12.22;91.54;101761.25;1937983;29;20044;-81
2022/09/01 03:08:33;;;;;;;3.40;2.50;;;;;;;12.25;88.85;101760.28;1932029;29;20068;-80
2022/09/01 03:09:31;;;;;;;6.35;2.67;;;;;;;12.20;91.06;101756.97;1924335;29;20032;-80
2022/09/01 03:10:40;;;;;;;4.13;2.60;;;;;;;12.20;90.54;101752.59;1931578;29;20036;-82
2022/09/01 03:11:41;;;;;;;5.22;2.83;;;;;;;12.19;88.91;101755.28;1931524;29;20188;-81
2022/09/01 03:12:39;;;;;;;3.97;2.40;;;;;;;12.18;89.08;101764.03;1931189;29;20050;-82
2022/09/01 03:13:40;;;;;;;3.67;2.70;;;;;;;12.15;88.77;101759.75;1938506;29;20465;-81
2022/09/01 03:14:37;;;;;;;5.47;3.00;;;;;;;12.13;89.50;101752.84;1937562;29;20043;-81
2022/09/01 03:15:36;;;;;;;4.03;2.60;;;;;;;12.12;89.61;101764.25;1931734;29;20501;-81
2022/09/01 03:16:36;;;;;;;6.78;2.80;;;;;;;12.06;92.50;101766.16;1931355;29;20456;-79
2022/09/01 03:17:34;;;;;;;;;;;;;;;12.02;92.64;101754.06;1932033;29;20482;-82
2022/09/01 03:18:32;;;;;;;5.50;2.90;;;;;;;12.00;90.98;101750.63;1931455;29;19975;-80
2022/09/01 03:19:38;;;;;;;3.03;2.80;;;;;;;12.01;91.42;101757.56;1931655;29;20480;-81
2022/09/01 03:20:42;;;;;;;3.42;3.10;;;;;;;12.01;91.01;101757.56;1923829;29;20041;-80
2022/09/01 03:21:43;;;;;;;5.22;2.78;;;;;;;12.00;91.67;101761.09;1931488;29;20043;-81
2022/09/01 03:22:43;;;;;;;5.28;2.88;;;;;;;12.00;92.63;101766.34;1938547;29;20121;-81
2022/09/01 03:23:41;;;;;;;3.30;2.97;;;;;;;11.99;90.97;101756.78;1931386;29;20136;-80
2022/09/01 03:24:41;;;;;;;5.28;3.17;;;;;;;11.97;92.40;101755.97;1931327;29;20028;-81
2022/09/01 03:25:42;;;;;;;3.80;3.28;;;;;;;11.99;90.46;101764.63;1931687;29;20032;-81
2022/09/01 03:26:43;;;;;;;5.90;3.30;;;;;;;11.99;90.75;101762.00;1938478;29;20440;-80
2022/09/01 03:27:40;;;;;;;4.88;3.28;;;;;;;11.97;90.69;101755.97;1938974;29;20027;-80
2022/09/01 03:28:38;;;;;;;7.80;3.45;;;;;;;11.99;90.13;101764.63;1931505;29;20032;-81
2022/09/01 03:29:35;;;;;;;5.35;3.58;;;;;;;11.96;91.12;101752.50;1931747;29;20044;-81
2022/09/01 03:30:37;;;;;;;4.43;3.15;;;;;;;11.98;90.03;101762.94;1923775;29;20043;-82
2022/09/01 03:31:36;;;;;;;3.53;3.22;;;;;;;11.97;89.78;101758.56;1916963;29;20041;-80
2022/09/01 03:32:33;;;;;;;5.47;3.58;;;;;;;11.98;90.01;101757.69;1931445;29;20028;-80
2022/09/01 03:33:31;;;;;;;3.75;3.45;;;;;;;11.97;90.15;101756.81;1938201;29;20418;-81
2022/09/01 03:34:33;;;;;;;6.13;3.47;;;;;;;11.97;90.61;101769.03;1932657;29;20039;-81
2022/09/01 03:35:30;;;;;;;6.03;2.97;;;;;;;11.96;90.44;101764.72;1931659;29;20043;-81
2022/09/01 03:36:29;;;;;;;4.55;3.22;;;;;;;11.93;93.05;101756.97;1931243;29;20324;-82
2022/09/01 03:37:27;;;;;;;3.72;3.28;;;;;;;11.93;91.94;101762.22;1931359;29;20036;-81
2022/09/01 03:38:26;;;;;;;4.30;3.55;;;;;;;11.94;92.91;101758.72;1931868;29;20064;-82
2022/09/01 03:39:23;;;;;;;5.40;3.50;;;;;;;11.94;91.43;101761.31;1938285;29;20039;-81
2022/09/01 03:40:20;;;;;;;6.00;3.30;;;;;;;11.94;91.47;101766.56;1938572;29;20945;-82
2022/09/01 03:41:24;;;;;;;4.95;3.40;;;;;;;11.92;93.59;101757.88;1932505;29;20063;-80
2022/09/01 03:42:21;;;;;;;3.80;3.25;;;;;;;11.91;92.21;101758.81;1931829;29;20032;-81
2022/09/01 03:43:25;;;;;;;4.53;3.08;;;;;;;11.92;91.10;101763.13;1938210;29;20060;-83
2022/09/01 03:44:23;;;;;;;3.75;3.17;;;;;;;11.88;92.76;101762.38;1938736;29;20515;-79
2022/09/01 03:45:24;;;;;;;6.47;3.40;;;;;;;11.89;92.12;101761.47;1923696;29;20029;-81
2022/09/01 03:46:23;;;;;;;3.47;3.17;;;;;;;11.89;92.52;101757.97;1930984;29;20039;-81
2022/09/01 03:47:20;;;;;;;6.13;3.58;;;;;;;11.89;92.87;101757.97;1938550;29;20023;-81
2022/09/01 03:48:19;;;;;;;3.28;3.00;;;;;;;11.84;94.52;101751.16;1931880;29;20056;-81
2022/09/01 03:49:26;;;;;;;3.55;3.10;;;;;;;11.83;95.20;101759.03;1931135;29;20032;-81
2022/09/01 03:50:24;;;;;;;4.07;3.13;;;;;;;11.82;93.47;101758.22;1938286;29;20438;-81
2022/09/01 03:51:23;;;;;;;3.05;2.85;;;;;;;11.87;94.30;101751.97;1931207;29;20088;-81
2022/09/01 03:52:25;;;;;;;5.68;3.20;;;;;;;11.88;92.35;101753.66;1938637;29;20451;-80
2022/09/01 03:53:26;;;;;;;3.70;3.40;;;;;;;11.89;93.43;101748.38;1938232;29;20065;-82
2022/09/01 03:54:27;;;;;;;;;;;;;;;11.87;95.26;101752.81;1931018;29;20044;-79
2022/09/01 03:55:29;;;;;;;8.38;3.40;;;;;;;11.87;93.37;101751.97;1938149;29;19947;-81
2022/09/01 03:56:28;;;;;;;10.40;3.28;;;;;;;11.95;93.83;101752.56;1940290;29;20122;-81
2022/09/01 03:57:27;;;;;;;7.03;3.17;;;;;;;11.94;91.69;101756.94;1941234;29;20138;-81
2022/09/01 03:58:24;;;;;;;4.32;3.08;;;;;;;11.95;94.11;101756.00;1942490;28;20102;-81
2022/09/01 03:59:24;;;;;;;3.28;2.95;;;;;;;11.94;94.20;101754.31;1936595;29;20044;-82
2022/09/01 04:00:28;;;;;;;3.10;2.85;;;;;;;11.94;93.54;101756.09;1938155;29;20036;-80
2022/09/01 04:01:34;;;;;;;3.30;3.00;;;;;;;11.95;93.51;101755.19;1938268;29;20040;-82
2022/09/01 04:02:31;;;;;;;3.47;3.03;;;;;;;11.96;93.27;101759.50;1945663;29;20031;-82
2022/09/01 04:03:33;;;;;;;3.40;3.10;;;;;;;11.97;92.17;101750.72;1945637;29;20038;-82
2022/09/01 04:04:31;;;;;;;4.00;3.10;;;;;;;11.97;92.77;101755.97;1938285;28;20098;-80
2022/09/01 04:05:32;;;;;;;3.25;2.85;;;;;;;11.98;92.11;101752.47;1938140;29;20066;-81
2022/09/01 04:06:30;;;;;;;4.70;3.10;;;;;;;11.97;93.19;101756.81;1937933;29;20043;-80
2022/09/01 04:07:29;;;;;;;2.97;2.78;;;;;;;11.97;92.70;101758.56;1944522;29;20103;-81
2022/09/01 04:08:30;;;;;;;6.60;2.90;;;;;;;11.95;93.04;101757.78;1945623;28;20046;-82
2022/09/01 04:09:27;;;;;;;4.53;2.88;;;;;;;11.97;91.77;101750.72;1945847;29;20031;-80
2022/09/01 04:10:25;;;;;;;3.28;3.00;;;;;;;12.00;91.77;101750.63;1945747;29;20095;-82
2022/09/01 04:11:23;;;;;;;4.07;2.78;;;;;;;12.02;91.58;101748.84;1945951;29;20046;-79
2022/09/01 04:12:21;;;;;;;2.83;2.60;;;;;;;12.02;92.76;101754.06;1953014;28;20083;-81
2022/09/01 04:13:36;;;;;;;6.70;2.95;;;;;;;12.05;91.60;101748.72;1950761;28;20042;-82
2022/09/01 04:14:34;;;;;;;6.50;3.03;;;;;;;12.07;92.00;101751.31;1946041;28;20070;-81
2022/09/01 04:15:32;;;;;;;4.18;2.85;;;;;;;12.10;91.96;101751.22;1946719;29;20391;-82
2022/09/01 04:19:14;;;;;;;7.05;3.15;;;;;;;12.15;91.61;101749.28;1946922;29;20465;-82
2022/09/01 04:20:14;;;;;;;3.92;3.10;;;;;;;12.16;91.66;101750.13;1946895;29;20035;-81
2022/09/01 04:21:12;;;;;;;3.50;2.78;;;;;;;12.15;93.24;101753.69;1946857;28;20042;-79
2022/09/01 04:22:13;;;;;;;4.10;2.70;;;;;;;12.19;92.00;101753.53;1954391;28;20113;-82
2022/09/01 04:23:10;;;;;;;;;;;;;;;12.18;93.27;101759.66;1954527;28;20030;-82
2022/09/01 04:24:09;;;;;;;7.35;3.40;;;;;;;12.16;91.92;101755.38;1946337;28;19918;-81
2022/09/01 04:25:07;;;;;;;4.53;2.90;;;;;;;12.17;91.58;101752.72;1953045;28;20034;-80
2022/09/01 04:26:13;;;;;;;4.85;3.15;;;;;;;12.17;93.17;101754.47;1953533;28;20027;-81
2022/09/01 04:27:12;;;;;;;3.45;3.17;;;;;;;12.16;92.89;101755.38;1945639;29;20126;-80
2022/09/01 04:28:21;;;;;;;5.43;3.20;;;;;;;12.18;91.50;101751.78;1945656;29;20130;-81
2022/09/01 04:29:27;;;;;;;5.20;3.20;;;;;;;12.18;90.84;101758.81;1946197;28;20043;-81
2022/09/01 04:30:32;;;;;;;5.82;3.38;;;;;;;12.18;90.87;101751.78;1952971;28;20053;-80
2022/09/01 04:31:30;;;;;;;3.67;3.20;;;;;;;12.19;91.83;101756.16;1953328;28;20049;-80
2022/09/01 04:32:27;;;;;;;6.65;3.50;;;;;;;12.17;92.64;101757.94;1954040;28;20039;-80
2022/09/01 04:33:35;;;;;;;4.28;3.10;;;;;;;12.16;91.18;101755.38;1947001;28;20031;-79
2022/09/01 04:34:37;;;;;;;6.50;3.20;;;;;;;12.14;91.50;101749.34;1938651;29;20409;-80
2022/09/01 04:35:41;;;;;;;4.25;3.20;;;;;;;12.15;91.73;101758.91;1931150;29;20073;-82
2022/09/01 04:36:44;;;;;;;4.43;3.38;;;;;;;12.14;91.12;101762.44;1938499;28;20103;-82
2022/09/01 04:37:42;;;;;;;4.07;2.92;;;;;;;12.18;91.16;101756.19;1953554;28;20073;-80
2022/09/01 04:38:39;;;;;;;5.15;2.90;;;;;;;12.15;90.60;101759.75;1953617;28;20027;-82
2022/09/01 04:39:38;;;;;;;3.85;3.05;;;;;;;12.16;91.75;101761.47;1953596;28;20479;-80
2022/09/01 04:40:41;;;;;;;5.05;3.13;;;;;;;12.13;92.46;101755.47;1939292;29;20047;-80
2022/09/01 04:41:44;;;;;;;6.80;3.15;;;;;;;12.17;90.91;101751.84;1945925;29;20045;-79
2022/09/01 04:42:43;;;;;;;6.00;3.20;;;;;;;12.18;90.38;101757.03;1953818;28;20031;-81
2022/09/01 04:43:41;;;;;;;3.63;3.33;;;;;;;12.15;92.47;101759.75;1945914;28;20031;-81
2022/09/01 04:44:44;;;;;;;4.35;3.28;;;;;;;12.14;91.67;101759.81;1946189;29;20466;-80
2022/09/01 04:45:41;;;;;;;3.60;3.30;;;;;;;12.08;91.91;101756.50;1945983;29;20056;-81
2022/09/01 04:46:45;;;;;;;6.57;3.22;;;;;;;12.09;91.54;101763.44;1938795;29;20042;-81